sensor_id;sensor_type;location;lat;lon;timestamp;temperature;humidity
55026;DHT22;40925;45.666;18.994;2023-04-23T06:55:56;409.60;2355.20
55026;DHT22;40925;45.666;18.994;2023-04-23T06:58:22;409.60;2355.20
55026;DHT22;40925;45.666;18.994;2023-04-23T07:00:57;409.60;2355.20
55026;DHT22;40925;45.666;18.994;2023-04-23T07:03:29;409.80;2355.20
55026;DHT22;40925;45.666;18.994;2023-04-23T07:05:56;409.90;2355.20
55026;DHT22;40925;45.666;18.994;2023-04-23T07:08:22;410.10;2355.20
55026;DHT22;40925;45.666;18.994;2023-04-23T07:10:48;410.40;2355.20
55026;DHT22;40925;45.666;18.994;2023-04-23T07:13:15;410.30;2355.20
55026;DHT22;40925;45.666;18.994;2023-04-23T07:15:41;435.20;2355.20
55026;DHT22;40925;45.666;18.994;2023-04-23T07:18:07;435.50;2355.20
55026;DHT22;40925;45.666;18.994;2023-04-23T07:20:33;435.70;2355.20
55026;DHT22;40925;45.666;18.994;2023-04-23T07:22:59;435.70;2355.20
55026;DHT22;40925;45.666;18.994;2023-04-23T07:25:25;460.80;2380.80
55026;DHT22;40925;45.666;18.994;2023-04-23T07:27:52;460.90;2380.80
55026;DHT22;40925;45.666;18.994;2023-04-23T07:30:22;460.90;2355.20
55026;DHT22;40925;45.666;18.994;2023-04-23T07:32:48;460.80;2278.40
55026;DHT22;40925;45.666;18.994;2023-04-23T07:35:17;461.30;2227.20
55026;DHT22;40925;45.666;18.994;2023-04-23T07:37:43;461.30;2176.00
55026;DHT22;40925;45.666;18.994;2023-04-23T07:40:40;461.30;2124.80
55026;DHT22;40925;45.666;18.994;2023-04-23T07:45:38;461.70;1996.80
55026;DHT22;40925;45.666;18.994;2023-04-23T07:48:04;461.70;2022.40
55026;DHT22;40925;45.666;18.994;2023-04-23T07:50:30;486.50;1996.80
55026;DHT22;40925;45.666;18.994;2023-04-23T07:52:56;486.60;1894.40
55026;DHT22;40925;45.666;18.994;2023-04-23T07:55:21;486.70;1920.00
55026;DHT22;40925;45.666;18.994;2023-04-23T07:57:47;486.80;1868.80
55026;DHT22;40925;45.666;18.994;2023-04-23T08:00:13;487.00;1868.80
55026;DHT22;40925;45.666;18.994;2023-04-23T08:02:39;487.10;1817.60
55026;DHT22;40925;45.666;18.994;2023-04-23T08:05:05;487.30;1689.60
55026;DHT22;40925;45.666;18.994;2023-04-23T08:07:31;487.20;1715.20
55026;DHT22;40925;45.666;18.994;2023-04-23T08:09:57;512.40;1664.00
55026;DHT22;40925;45.666;18.994;2023-04-23T08:15:49;512.30;1561.60
55026;DHT22;40925;45.666;18.994;2023-04-23T08:18:16;512.50;1561.60
55026;DHT22;40925;45.666;18.994;2023-04-23T08:20:42;537.60;1612.80
55026;DHT22;40925;45.666;18.994;2023-04-23T08:23:08;537.90;1561.60
55026;DHT22;40925;45.666;18.994;2023-04-23T08:25:33;537.90;1536.00
55026;DHT22;40925;45.666;18.994;2023-04-23T08:27:59;538.10;1510.40
55026;DHT22;40925;45.666;18.994;2023-04-23T08:30:25;538.10;1484.80
55026;DHT22;40925;45.666;18.994;2023-04-23T08:32:51;538.20;1510.40
55026;DHT22;40925;45.666;18.994;2023-04-23T08:35:21;538.40;1484.80
55026;DHT22;40925;45.666;18.994;2023-04-23T08:37:47;538.30;1433.60
55026;DHT22;40925;45.666;18.994;2023-04-23T08:42:49;563.30;1484.80
55026;DHT22;40925;45.666;18.994;2023-04-23T08:45:16;563.20;1484.80
55026;DHT22;40925;45.666;18.994;2023-04-23T08:55:15;564.00;1408.00
55026;DHT22;40925;45.666;18.994;2023-04-23T09:00:10;589.00;1433.60
55026;DHT22;40925;45.666;18.994;2023-04-23T09:02:44;589.00;1433.60
55026;DHT22;40925;45.666;18.994;2023-04-23T09:05:11;589.10;1459.20
55026;DHT22;40925;45.666;18.994;2023-04-23T09:07:37;589.00;1408.00
55026;DHT22;40925;45.666;18.994;2023-04-23T09:10:04;588.90;1356.80
55026;DHT22;40925;45.666;18.994;2023-04-23T09:12:31;588.90;1382.40
55026;DHT22;40925;45.666;18.994;2023-04-23T09:14:57;589.00;1305.60
55026;DHT22;40925;45.666;18.994;2023-04-23T09:17:27;589.50;1356.80
55026;DHT22;40925;45.666;18.994;2023-04-23T09:19:53;589.60;1356.80
55026;DHT22;40925;45.666;18.994;2023-04-23T09:22:50;589.30;1280.00
55026;DHT22;40925;45.666;18.994;2023-04-23T09:25:21;589.50;1228.80
55026;DHT22;40925;45.666;18.994;2023-04-23T09:27:49;589.60;1254.40
55026;DHT22;40925;45.666;18.994;2023-04-23T09:30:16;589.50;1203.20
55026;DHT22;40925;45.666;18.994;2023-04-23T09:32:43;589.70;1177.60
55026;DHT22;40925;45.666;18.994;2023-04-23T09:35:14;614.70;1152.00
55026;DHT22;40925;45.666;18.994;2023-04-23T09:37:42;589.70;1152.00
55026;DHT22;40925;45.666;18.994;2023-04-23T09:40:08;589.50;1203.20
55026;DHT22;40925;45.666;18.994;2023-04-23T09:42:37;589.50;1254.40
55026;DHT22;40925;45.666;18.994;2023-04-23T09:45:09;614.60;1100.80
55026;DHT22;40925;45.666;18.994;2023-04-23T09:47:39;615.10;1100.80
55026;DHT22;40925;45.666;18.994;2023-04-23T09:50:06;614.80;1152.00
55026;DHT22;40925;45.666;18.994;2023-04-23T09:52:38;614.50;1049.60
55026;DHT22;40925;45.666;18.994;2023-04-23T09:55:04;614.40;972.80
55026;DHT22;40925;45.666;18.994;2023-04-23T09:57:35;614.80;947.20
55026;DHT22;40925;45.666;18.994;2023-04-23T10:00:13;640.20;998.40
55026;DHT22;40925;45.666;18.994;2023-04-23T10:02:45;640.00;972.80
55026;DHT22;40925;45.666;18.994;2023-04-23T10:07:43;615.30;998.40
55026;DHT22;40925;45.666;18.994;2023-04-23T10:10:14;640.30;972.80
55026;DHT22;40925;45.666;18.994;2023-04-23T10:12:41;640.30;1024.00
55026;DHT22;40925;45.666;18.994;2023-04-23T10:15:07;665.70;998.40
55026;DHT22;40925;45.666;18.994;2023-04-23T10:17:34;665.70;998.40
55026;DHT22;40925;45.666;18.994;2023-04-23T10:20:00;640.80;998.40
55026;DHT22;40925;45.666;18.994;2023-04-23T10:22:28;640.20;998.40
55026;DHT22;40925;45.666;18.994;2023-04-23T10:24:56;640.10;998.40
55026;DHT22;40925;45.666;18.994;2023-04-23T10:27:44;640.60;998.40
55026;DHT22;40925;45.666;18.994;2023-04-23T10:30:11;640.80;947.20
55026;DHT22;40925;45.666;18.994;2023-04-23T10:32:39;640.50;921.60
55026;DHT22;40925;45.666;18.994;2023-04-23T10:35:06;640.90;921.60
55026;DHT22;40925;45.666;18.994;2023-04-23T10:37:33;640.20;972.80
55026;DHT22;40925;45.666;18.994;2023-04-23T10:40:11;640.40;998.40
55026;DHT22;40925;45.666;18.994;2023-04-23T10:42:47;640.30;998.40
55026;DHT22;40925;45.666;18.994;2023-04-23T10:45:15;640.30;998.40
55026;DHT22;40925;45.666;18.994;2023-04-23T10:47:42;640.70;947.20
55026;DHT22;40925;45.666;18.994;2023-04-23T10:50:25;640.90;947.20
55026;DHT22;40925;45.666;18.994;2023-04-23T10:52:51;640.40;947.20
55026;DHT22;40925;45.666;18.994;2023-04-23T10:55:26;615.30;947.20
55026;DHT22;40925;45.666;18.994;2023-04-23T11:00:23;640.90;896.00
55026;DHT22;40925;45.666;18.994;2023-04-23T11:02:50;666.10;921.60
55026;DHT22;40925;45.666;18.994;2023-04-23T11:05:17;665.90;921.60
55026;DHT22;40925;45.666;18.994;2023-04-23T11:08:05;665.60;921.60
55026;DHT22;40925;45.666;18.994;2023-04-23T11:10:31;665.60;921.60
55026;DHT22;40925;45.666;18.994;2023-04-23T11:13:24;640.80;921.60
55026;DHT22;40925;45.666;18.994;2023-04-23T11:16:19;640.70;921.60
55026;DHT22;40925;45.666;18.994;2023-04-23T11:19:02;640.00;896.00
55026;DHT22;40925;45.666;18.994;2023-04-23T11:22:06;640.40;896.00
55026;DHT22;40925;45.666;18.994;2023-04-23T11:24:38;640.60;921.60
55026;DHT22;40925;45.666;18.994;2023-04-23T11:27:11;665.90;896.00
55026;DHT22;40925;45.666;18.994;2023-04-23T11:29:38;666.30;921.60
55026;DHT22;40925;45.666;18.994;2023-04-23T11:32:05;691.40;870.40
55026;DHT22;40925;45.666;18.994;2023-04-23T11:34:42;691.80;819.20
55026;DHT22;40925;45.666;18.994;2023-04-23T11:37:10;692.10;844.80
55026;DHT22;40925;45.666;18.994;2023-04-23T11:39:36;717.10;870.40
55026;DHT22;40925;45.666;18.994;2023-04-23T11:42:02;691.70;819.20
55026;DHT22;40925;45.666;18.994;2023-04-23T11:44:29;691.40;896.00
55026;DHT22;40925;45.666;18.994;2023-04-23T11:47:01;666.40;947.20
55026;DHT22;40925;45.666;18.994;2023-04-23T11:49:26;665.90;947.20
55026;DHT22;40925;45.666;18.994;2023-04-23T11:51:52;666.50;896.00
55026;DHT22;40925;45.666;18.994;2023-04-23T11:54:18;691.70;870.40
55026;DHT22;40925;45.666;18.994;2023-04-23T11:56:52;691.60;819.20
55026;DHT22;40925;45.666;18.994;2023-04-23T11:59:18;691.50;870.40
55026;DHT22;40925;45.666;18.994;2023-04-23T12:01:46;692.00;844.80
55026;DHT22;40925;45.666;18.994;2023-04-23T12:06:40;691.80;819.20
55026;DHT22;40925;45.666;18.994;2023-04-23T12:09:07;691.20;844.80
55026;DHT22;40925;45.666;18.994;2023-04-23T12:15:03;691.90;844.80
55026;DHT22;40925;45.666;18.994;2023-04-23T12:17:29;717.20;870.40
55026;DHT22;40925;45.666;18.994;2023-04-23T12:19:55;717.60;819.20
55026;DHT22;40925;45.666;18.994;2023-04-23T12:22:26;692.00;844.80
55026;DHT22;40925;45.666;18.994;2023-04-23T12:24:52;717.00;844.80
55026;DHT22;40925;45.666;18.994;2023-04-23T12:27:39;691.70;819.20
55026;DHT22;40925;45.666;18.994;2023-04-23T12:30:07;666.40;870.40
55026;DHT22;40925;45.666;18.994;2023-04-23T12:32:33;691.60;870.40
55026;DHT22;40925;45.666;18.994;2023-04-23T12:34:59;691.80;844.80
55026;DHT22;40925;45.666;18.994;2023-04-23T12:37:27;717.00;870.40
55026;DHT22;40925;45.666;18.994;2023-04-23T12:39:53;716.80;844.80
55026;DHT22;40925;45.666;18.994;2023-04-23T12:42:39;691.90;844.80
55026;DHT22;40925;45.666;18.994;2023-04-23T12:45:06;691.60;819.20
55026;DHT22;40925;45.666;18.994;2023-04-23T12:47:32;691.40;819.20
55026;DHT22;40925;45.666;18.994;2023-04-23T12:49:58;692.00;819.20
55026;DHT22;40925;45.666;18.994;2023-04-23T12:52:26;691.60;819.20
55026;DHT22;40925;45.666;18.994;2023-04-23T12:54:52;691.60;819.20
55026;DHT22;40925;45.666;18.994;2023-04-23T12:57:20;666.50;844.80
55026;DHT22;40925;45.666;18.994;2023-04-23T12:59:47;666.20;844.80
55026;DHT22;40925;45.666;18.994;2023-04-23T13:02:13;666.50;844.80
55026;DHT22;40925;45.666;18.994;2023-04-23T13:04:39;666.50;819.20
55026;DHT22;40925;45.666;18.994;2023-04-23T13:07:05;666.30;870.40
55026;DHT22;40925;45.666;18.994;2023-04-23T13:09:30;666.40;844.80
55026;DHT22;40925;45.666;18.994;2023-04-23T13:11:56;666.20;844.80
55026;DHT22;40925;45.666;18.994;2023-04-23T13:14:22;665.90;870.40
55026;DHT22;40925;45.666;18.994;2023-04-23T13:16:49;666.20;844.80
55026;DHT22;40925;45.666;18.994;2023-04-23T13:19:15;666.10;819.20
55026;DHT22;40925;45.666;18.994;2023-04-23T13:21:44;666.30;844.80
55026;DHT22;40925;45.666;18.994;2023-04-23T13:24:10;666.10;844.80
55026;DHT22;40925;45.666;18.994;2023-04-23T13:26:36;666.50;844.80
55026;DHT22;40925;45.666;18.994;2023-04-23T13:29:02;665.60;844.80
55026;DHT22;40925;45.666;18.994;2023-04-23T13:31:29;691.30;819.20
55026;DHT22;40925;45.666;18.994;2023-04-23T13:33:55;691.70;793.60
55026;DHT22;40925;45.666;18.994;2023-04-23T13:36:23;691.50;793.60
55026;DHT22;40925;45.666;18.994;2023-04-23T13:38:49;691.30;768.00
55026;DHT22;40925;45.666;18.994;2023-04-23T13:41:15;692.10;793.60
55026;DHT22;40925;45.666;18.994;2023-04-23T13:43:41;717.20;793.60
55026;DHT22;40925;45.666;18.994;2023-04-23T13:46:07;717.60;793.60
55026;DHT22;40925;45.666;18.994;2023-04-23T13:48:33;742.40;819.20
55026;DHT22;40925;45.666;18.994;2023-04-23T13:50:59;717.70;768.00
55026;DHT22;40925;45.666;18.994;2023-04-23T13:53:26;717.70;793.60
55026;DHT22;40925;45.666;18.994;2023-04-23T13:55:54;742.60;793.60
55026;DHT22;40925;45.666;18.994;2023-04-23T13:58:20;716.80;793.60
55026;DHT22;40925;45.666;18.994;2023-04-23T14:00:46;717.10;793.60
55026;DHT22;40925;45.666;18.994;2023-04-23T14:03:12;717.60;768.00
55026;DHT22;40925;45.666;18.994;2023-04-23T14:05:38;742.50;793.60
55026;DHT22;40925;45.666;18.994;2023-04-23T14:08:04;742.40;793.60
55026;DHT22;40925;45.666;18.994;2023-04-23T14:10:29;742.70;793.60
55026;DHT22;40925;45.666;18.994;2023-04-23T14:12:55;742.50;768.00
55026;DHT22;40925;45.666;18.994;2023-04-23T14:15:21;742.60;793.60
55026;DHT22;40925;45.666;18.994;2023-04-23T14:17:47;742.50;793.60
55026;DHT22;40925;45.666;18.994;2023-04-23T14:20:13;717.20;793.60
55026;DHT22;40925;45.666;18.994;2023-04-23T14:22:40;717.40;768.00
55026;DHT22;40925;45.666;18.994;2023-04-23T14:25:14;717.50;793.60
55026;DHT22;40925;45.666;18.994;2023-04-23T14:27:44;742.40;793.60
55026;DHT22;40925;45.666;18.994;2023-04-23T14:30:18;742.40;819.20
55026;DHT22;40925;45.666;18.994;2023-04-23T14:32:44;742.70;819.20
55026;DHT22;40925;45.666;18.994;2023-04-23T14:35:14;742.70;819.20
55026;DHT22;40925;45.666;18.994;2023-04-23T14:37:41;742.80;819.20
55026;DHT22;40925;45.666;18.994;2023-04-23T14:40:13;742.90;819.20
55026;DHT22;40925;45.666;18.994;2023-04-23T14:42:44;742.80;819.20
55026;DHT22;40925;45.666;18.994;2023-04-23T14:45:10;742.80;819.20
55026;DHT22;40925;45.666;18.994;2023-04-23T14:47:36;743.00;793.60
55026;DHT22;40925;45.666;18.994;2023-04-23T14:50:02;743.00;793.60
55026;DHT22;40925;45.666;18.994;2023-04-23T14:52:28;743.00;793.60
55026;DHT22;40925;45.666;18.994;2023-04-23T14:54:54;742.90;793.60
55026;DHT22;40925;45.666;18.994;2023-04-23T14:57:22;717.70;768.00
55026;DHT22;40925;45.666;18.994;2023-04-23T14:59:47;742.40;819.20
55026;DHT22;40925;45.666;18.994;2023-04-23T15:02:13;717.20;793.60
55026;DHT22;40925;45.666;18.994;2023-04-23T15:04:39;717.30;768.00
55026;DHT22;40925;45.666;18.994;2023-04-23T15:07:05;717.40;768.00
55026;DHT22;40925;45.666;18.994;2023-04-23T15:09:30;717.60;768.00
55026;DHT22;40925;45.666;18.994;2023-04-23T15:11:56;717.70;768.00
55026;DHT22;40925;45.666;18.994;2023-04-23T15:14:31;717.60;793.60
55026;DHT22;40925;45.666;18.994;2023-04-23T15:16:57;742.40;819.20
55026;DHT22;40925;45.666;18.994;2023-04-23T15:19:23;742.40;819.20
55026;DHT22;40925;45.666;18.994;2023-04-23T15:21:49;742.50;793.60
55026;DHT22;40925;45.666;18.994;2023-04-23T15:24:15;742.50;819.20
55026;DHT22;40925;45.666;18.994;2023-04-23T15:26:41;717.70;793.60
55026;DHT22;40925;45.666;18.994;2023-04-23T15:29:07;742.40;793.60
55026;DHT22;40925;45.666;18.994;2023-04-23T15:31:34;717.60;793.60
55026;DHT22;40925;45.666;18.994;2023-04-23T15:34:00;717.60;768.00
55026;DHT22;40925;45.666;18.994;2023-04-23T15:36:26;717.60;793.60
55026;DHT22;40925;45.666;18.994;2023-04-23T15:38:51;692.10;768.00
55026;DHT22;40925;45.666;18.994;2023-04-23T15:41:17;716.90;793.60
55026;DHT22;40925;45.666;18.994;2023-04-23T15:43:43;717.00;793.60
55026;DHT22;40925;45.666;18.994;2023-04-23T15:46:08;717.10;793.60
55026;DHT22;40925;45.666;18.994;2023-04-23T15:48:35;717.10;793.60
55026;DHT22;40925;45.666;18.994;2023-04-23T15:51:00;717.20;768.00
55026;DHT22;40925;45.666;18.994;2023-04-23T15:53:27;717.20;793.60
55026;DHT22;40925;45.666;18.994;2023-04-23T15:55:52;717.20;793.60
55026;DHT22;40925;45.666;18.994;2023-04-23T15:58:19;716.80;768.00
55026;DHT22;40925;45.666;18.994;2023-04-23T16:00:45;691.80;793.60
55026;DHT22;40925;45.666;18.994;2023-04-23T16:03:11;692.00;793.60
55026;DHT22;40925;45.666;18.994;2023-04-23T16:05:39;691.80;768.00
55026;DHT22;40925;45.666;18.994;2023-04-23T16:08:05;692.00;793.60
55026;DHT22;40925;45.666;18.994;2023-04-23T16:10:31;692.00;793.60
55026;DHT22;40925;45.666;18.994;2023-04-23T16:12:59;692.10;793.60
55026;DHT22;40925;45.666;18.994;2023-04-23T16:15:25;691.90;793.60
55026;DHT22;40925;45.666;18.994;2023-04-23T16:17:51;691.90;793.60
55026;DHT22;40925;45.666;18.994;2023-04-23T16:20:27;691.80;793.60
55026;DHT22;40925;45.666;18.994;2023-04-23T16:22:53;691.60;793.60
55026;DHT22;40925;45.666;18.994;2023-04-23T16:25:19;691.60;793.60
55026;DHT22;40925;45.666;18.994;2023-04-23T16:27:45;691.20;844.80
55026;DHT22;40925;45.666;18.994;2023-04-23T16:30:11;666.10;844.80
55026;DHT22;40925;45.666;18.994;2023-04-23T16:32:37;666.00;870.40
55026;DHT22;40925;45.666;18.994;2023-04-23T16:35:03;665.80;896.00
55026;DHT22;40925;45.666;18.994;2023-04-23T16:37:29;665.70;896.00
55026;DHT22;40925;45.666;18.994;2023-04-23T16:39:55;665.60;896.00
55026;DHT22;40925;45.666;18.994;2023-04-23T16:42:21;640.80;896.00
55026;DHT22;40925;45.666;18.994;2023-04-23T16:44:48;640.60;896.00
55026;DHT22;40925;45.666;18.994;2023-04-23T16:47:13;640.60;896.00
55026;DHT22;40925;45.666;18.994;2023-04-23T16:49:39;640.70;896.00
55026;DHT22;40925;45.666;18.994;2023-04-23T16:52:05;640.60;921.60
55026;DHT22;40925;45.666;18.994;2023-04-23T16:54:31;640.60;921.60
55026;DHT22;40925;45.666;18.994;2023-04-23T16:56:58;640.50;921.60
55026;DHT22;40925;45.666;18.994;2023-04-23T16:59:25;640.40;921.60
55026;DHT22;40925;45.666;18.994;2023-04-23T17:01:53;640.30;972.80
55026;DHT22;40925;45.666;18.994;2023-04-23T17:04:18;640.30;1024.00
55026;DHT22;40925;45.666;18.994;2023-04-23T17:06:44;615.30;1024.00
55026;DHT22;40925;45.666;18.994;2023-04-23T17:09:10;615.20;1024.00
55026;DHT22;40925;45.666;18.994;2023-04-23T17:11:36;615.10;1024.00
55026;DHT22;40925;45.666;18.994;2023-04-23T17:14:01;614.90;1049.60
55026;DHT22;40925;45.666;18.994;2023-04-23T17:16:27;614.80;1024.00
55026;DHT22;40925;45.666;18.994;2023-04-23T17:18:54;614.40;1177.60
55026;DHT22;40925;45.666;18.994;2023-04-23T17:21:20;589.60;1177.60
55026;DHT22;40925;45.666;18.994;2023-04-23T17:23:46;589.10;1203.20
55026;DHT22;40925;45.666;18.994;2023-04-23T17:26:12;589.20;1203.20
55026;DHT22;40925;45.666;18.994;2023-04-23T17:28:38;589.30;1177.60
55026;DHT22;40925;45.666;18.994;2023-04-23T17:31:05;589.30;1177.60
55026;DHT22;40925;45.666;18.994;2023-04-23T17:33:32;589.40;1177.60
55026;DHT22;40925;45.666;18.994;2023-04-23T17:35:57;589.50;1177.60
55026;DHT22;40925;45.666;18.994;2023-04-23T17:38:23;589.30;1177.60
55026;DHT22;40925;45.666;18.994;2023-04-23T17:40:53;589.30;1203.20
55026;DHT22;40925;45.666;18.994;2023-04-23T17:43:19;588.90;1177.60
55026;DHT22;40925;45.666;18.994;2023-04-23T17:45:45;563.80;1254.40
55026;DHT22;40925;45.666;18.994;2023-04-23T17:48:12;563.50;1305.60
55026;DHT22;40925;45.666;18.994;2023-04-23T17:50:39;563.40;1331.20
55026;DHT22;40925;45.666;18.994;2023-04-23T17:53:05;563.30;1305.60
55026;DHT22;40925;45.666;18.994;2023-04-23T17:55:30;538.20;1280.00
55026;DHT22;40925;45.666;18.994;2023-04-23T17:58:00;538.10;1305.60
55026;DHT22;40925;45.666;18.994;2023-04-23T18:00:40;537.90;1280.00
55026;DHT22;40925;45.666;18.994;2023-04-23T18:03:06;537.90;1280.00
55026;DHT22;40925;45.666;18.994;2023-04-23T18:05:34;537.90;1280.00
55026;DHT22;40925;45.666;18.994;2023-04-23T18:07:59;538.00;1305.60
55026;DHT22;40925;45.666;18.994;2023-04-23T18:10:25;538.10;1254.40
55026;DHT22;40925;45.666;18.994;2023-04-23T18:12:51;538.10;1228.80
55026;DHT22;40925;45.666;18.994;2023-04-23T18:15:16;538.10;1228.80
55026;DHT22;40925;45.666;18.994;2023-04-23T18:17:42;538.00;1228.80
55026;DHT22;40925;45.666;18.994;2023-04-23T18:20:08;537.90;1228.80
55026;DHT22;40925;45.666;18.994;2023-04-23T18:22:37;537.90;1254.40
55026;DHT22;40925;45.666;18.994;2023-04-23T18:25:06;537.90;1254.40
55026;DHT22;40925;45.666;18.994;2023-04-23T18:27:34;537.70;1280.00
55026;DHT22;40925;45.666;18.994;2023-04-23T18:30:00;537.70;1305.60
55026;DHT22;40925;45.666;18.994;2023-04-23T18:32:26;537.60;1331.20
55026;DHT22;40925;45.666;18.994;2023-04-23T18:34:54;512.80;1305.60
55026;DHT22;40925;45.666;18.994;2023-04-23T18:40:04;512.20;1408.00
55026;DHT22;40925;45.666;18.994;2023-04-23T18:42:30;487.20;1433.60
55026;DHT22;40925;45.666;18.994;2023-04-23T18:44:55;486.90;1484.80
55026;DHT22;40925;45.666;18.994;2023-04-23T18:47:24;486.60;1536.00
55026;DHT22;40925;45.666;18.994;2023-04-23T18:49:54;486.40;1587.20
55026;DHT22;40925;45.666;18.994;2023-04-23T18:52:21;461.40;1587.20
55026;DHT22;40925;45.666;18.994;2023-04-23T18:54:47;461.50;1612.80
55026;DHT22;40925;45.666;18.994;2023-04-23T18:57:13;461.60;1587.20
55026;DHT22;40925;45.666;18.994;2023-04-23T18:59:38;461.50;1587.20
55026;DHT22;40925;45.666;18.994;2023-04-23T19:02:04;461.60;1587.20
55026;DHT22;40925;45.666;18.994;2023-04-23T19:04:31;461.60;1587.20
55026;DHT22;40925;45.666;18.994;2023-04-23T19:06:57;461.60;1587.20
55026;DHT22;40925;45.666;18.994;2023-04-23T19:09:24;461.60;1587.20
55026;DHT22;40925;45.666;18.994;2023-04-23T19:11:49;461.60;1587.20
55026;DHT22;40925;45.666;18.994;2023-04-23T19:14:15;461.60;1561.60
55026;DHT22;40925;45.666;18.994;2023-04-23T19:16:43;461.60;1587.20
55026;DHT22;40925;45.666;18.994;2023-04-23T19:19:09;461.50;1587.20
55026;DHT22;40925;45.666;18.994;2023-04-23T19:21:35;461.40;1587.20
55026;DHT22;40925;45.666;18.994;2023-04-23T19:24:01;461.40;1612.80
55026;DHT22;40925;45.666;18.994;2023-04-23T19:26:26;461.40;1612.80
55026;DHT22;40925;45.666;18.994;2023-04-23T19:29:10;461.30;1612.80
55026;DHT22;40925;45.666;18.994;2023-04-23T19:31:36;461.20;1638.40
55026;DHT22;40925;45.666;18.994;2023-04-23T19:34:01;461.10;1638.40
55026;DHT22;40925;45.666;18.994;2023-04-23T19:36:27;461.00;1664.00
55026;DHT22;40925;45.666;18.994;2023-04-23T19:38:53;461.00;1689.60
55026;DHT22;40925;45.666;18.994;2023-04-23T19:41:19;460.80;1689.60
55026;DHT22;40925;45.666;18.994;2023-04-23T19:43:44;436.10;1689.60
55026;DHT22;40925;45.666;18.994;2023-04-23T19:46:10;460.80;1715.20
55026;DHT22;40925;45.666;18.994;2023-04-23T19:48:36;436.10;1689.60
55026;DHT22;40925;45.666;18.994;2023-04-23T19:51:02;436.10;1689.60
55026;DHT22;40925;45.666;18.994;2023-04-23T19:53:27;436.00;1689.60
55026;DHT22;40925;45.666;18.994;2023-04-23T19:55:53;436.00;1715.20
55026;DHT22;40925;45.666;18.994;2023-04-23T19:58:19;435.70;1740.80
55026;DHT22;40925;45.666;18.994;2023-04-23T20:00:45;435.70;1766.40
55026;DHT22;40925;45.666;18.994;2023-04-23T20:03:10;435.60;1766.40
55026;DHT22;40925;45.666;18.994;2023-04-23T20:05:36;435.50;1792.00
55026;DHT22;40925;45.666;18.994;2023-04-23T20:08:02;435.40;1817.60
55026;DHT22;40925;45.666;18.994;2023-04-23T20:10:38;435.40;1817.60
55026;DHT22;40925;45.666;18.994;2023-04-23T20:13:04;435.40;1817.60
55026;DHT22;40925;45.666;18.994;2023-04-23T20:15:30;435.30;1843.20
55026;DHT22;40925;45.666;18.994;2023-04-23T20:17:56;435.70;1843.20
55026;DHT22;40925;45.666;18.994;2023-04-23T20:20:22;435.50;1843.20
55026;DHT22;40925;45.666;18.994;2023-04-23T20:22:49;435.40;1843.20
55026;DHT22;40925;45.666;18.994;2023-04-23T20:25:15;435.50;1843.20
55026;DHT22;40925;45.666;18.994;2023-04-23T20:27:41;435.50;1868.80
55026;DHT22;40925;45.666;18.994;2023-04-23T20:30:09;435.30;1868.80
55026;DHT22;40925;45.666;18.994;2023-04-23T20:32:35;435.40;1894.40
55026;DHT22;40925;45.666;18.994;2023-04-23T20:35:01;435.30;1894.40
55026;DHT22;40925;45.666;18.994;2023-04-23T20:37:27;435.30;1894.40
55026;DHT22;40925;45.666;18.994;2023-04-23T20:39:54;435.40;1920.00
55026;DHT22;40925;45.666;18.994;2023-04-23T20:42:20;435.40;1920.00
55026;DHT22;40925;45.666;18.994;2023-04-23T20:44:45;435.20;1920.00
55026;DHT22;40925;45.666;18.994;2023-04-23T20:47:12;435.20;1945.60
55026;DHT22;40925;45.666;18.994;2023-04-23T20:49:38;435.30;1894.40
55026;DHT22;40925;45.666;18.994;2023-04-23T20:52:05;435.50;1894.40
55026;DHT22;40925;45.666;18.994;2023-04-23T20:54:30;435.50;1894.40
55026;DHT22;40925;45.666;18.994;2023-04-23T20:56:56;435.60;1894.40
55026;DHT22;40925;45.666;18.994;2023-04-23T20:59:23;435.50;1920.00
55026;DHT22;40925;45.666;18.994;2023-04-23T21:01:48;435.50;1920.00
55026;DHT22;40925;45.666;18.994;2023-04-23T21:04:14;435.50;1945.60
55026;DHT22;40925;45.666;18.994;2023-04-23T21:06:41;435.60;1920.00
55026;DHT22;40925;45.666;18.994;2023-04-23T21:09:08;435.50;1945.60
55026;DHT22;40925;45.666;18.994;2023-04-23T21:11:33;435.50;1971.20
55026;DHT22;40925;45.666;18.994;2023-04-23T21:14:19;435.40;1996.80
55026;DHT22;40925;45.666;18.994;2023-04-23T21:16:45;435.40;1996.80
55026;DHT22;40925;45.666;18.994;2023-04-23T21:19:10;435.40;1996.80
55026;DHT22;40925;45.666;18.994;2023-04-23T21:21:36;435.30;2022.40
55026;DHT22;40925;45.666;18.994;2023-04-23T21:24:02;435.30;2048.00
55026;DHT22;40925;45.666;18.994;2023-04-23T21:26:29;410.50;2048.00
55026;DHT22;40925;45.666;18.994;2023-04-23T21:31:59;435.20;2099.20
55026;DHT22;40925;45.666;18.994;2023-04-23T21:34:25;410.40;2124.80
55026;DHT22;40925;45.666;18.994;2023-04-23T21:36:51;410.20;2201.60
55026;DHT22;40925;45.666;18.994;2023-04-23T21:39:17;409.90;2201.60
55026;DHT22;40925;45.666;18.994;2023-04-23T21:41:43;410.00;2201.60
55026;DHT22;40925;45.666;18.994;2023-04-23T21:44:09;409.90;2227.20
55026;DHT22;40925;45.666;18.994;2023-04-23T21:46:35;409.90;2252.80
55026;DHT22;40925;45.666;18.994;2023-04-23T21:49:00;410.00;2252.80
55026;DHT22;40925;45.666;18.994;2023-04-23T21:51:26;410.00;2252.80
55026;DHT22;40925;45.666;18.994;2023-04-23T21:53:52;409.80;2304.00
55026;DHT22;40925;45.666;18.994;2023-04-23T21:56:19;384.80;2304.00
55026;DHT22;40925;45.666;18.994;2023-04-23T21:58:45;409.60;2355.20
55026;DHT22;40925;45.666;18.994;2023-04-23T22:01:11;384.90;2329.60
55026;DHT22;40925;45.666;18.994;2023-04-23T22:03:37;384.70;2329.60
55026;DHT22;40925;45.666;18.994;2023-04-23T22:06:07;384.60;2329.60
55026;DHT22;40925;45.666;18.994;2023-04-23T22:08:34;384.50;2329.60
55026;DHT22;40925;45.666;18.994;2023-04-23T22:11:03;384.50;2329.60
55026;DHT22;40925;45.666;18.994;2023-04-23T22:13:44;384.40;2329.60